This is the latest recevied weather packets stored in our database for station/object SP6KBU-12. If no packets are shown the sender has not sent any weather packets the latest 10 day(s).
| Time | Temp. | Humidity | Pressure | Rain* | Wind** | Luminosity | Snow |
|---|---|---|---|---|---|---|---|
| 1777430144 | 0.56° C | 46% | 1026.9 hPa | - | - | - | - |
| 1777429244 | 1.11° C | 47% | 1026.9 hPa | - | - | - | - |
| 1777428344 | 0.56° C | 48% | 1026.7 hPa | - | - | - | - |
| 1777427444 | 1.11° C | 47% | 1026.7 hPa | - | - | - | - |
| 1777426543 | 1.67° C | 44% | 1026.5 hPa | - | - | - | - |
| 1777425643 | 2.22° C | 43% | 1026.3 hPa | - | - | - | - |
| 1777424743 | 1.67° C | 44% | 1026.3 hPa | - | - | - | - |
| 1777423843 | 3.33° C | 37% | 1026.1 hPa | - | - | - | - |
| 1777422943 | 3.33° C | 36% | 1025.8 hPa | - | - | - | - |
| 1777422044 | 3.33° C | 36% | 1025.8 hPa | - | - | - | - |
| 1777421144 | 3.89° C | 36% | 1025.8 hPa | - | - | - | - |
| 1777420243 | 3.89° C | 36% | 1025.8 hPa | - | - | - | - |
| 1777419344 | 3.89° C | 36% | 1025.8 hPa | - | - | - | - |
| 1777418444 | 3.89° C | 37% | 1025.7 hPa | - | - | - | - |
| 1777417544 | 3.89° C | 38% | 1025.8 hPa | - | - | - | - |
| 1777416645 | 3.33° C | 40% | 1025.9 hPa | - | - | - | - |
| 1777415745 | 3.89° C | 39% | 1025.9 hPa | - | - | - | - |
| 1777414845 | 3.89° C | 35% | 1026 hPa | - | - | - | - |
| 1777413944 | 4.44° C | 34% | 1025.9 hPa | - | - | - | - |
| 1777413044 | 4.44° C | 34% | 1025.9 hPa | - | - | - | - |
| 1777412143 | 4.44° C | 34% | 1026 hPa | - | - | - | - |
| 1777411243 | 4.44° C | 35% | 1026.1 hPa | - | - | - | - |
| 1777410343 | 5° C | 34% | 1026 hPa | - | - | - | - |
| 1777409442 | 5° C | 34% | 1026 hPa | - | - | - | - |
| 1777408543 | 5° C | 34% | 1025.9 hPa | - | - | - | - |
* Rain since midnight (hover to see other rain measurements)
** Current wind speed in m/s (hover to see current wind gust speed)